Time;durP1;ratioP1;P1;durP2;ratioP2;P2;SDS_P1;SDS_P2;PMS_P1;PMS_P2;Temp;Humidity;BMP_temperature;BMP_pressure;BME280_temperature;BME280_humidity;BME280_pressure;Samples;Min_cycle;Max_cycle;Signal;HPM_P1;HPM_P2
2023/12/29 00:00:43;;;;;;;20.55;10.23;;;10.40;76.60;;;;;;7398076;19;19923;-72
2023/12/29 00:03:08;;;;;;;21.38;10.82;;;10.40;77.20;;;;;;7398887;19;19930;-71
2023/12/29 00:05:34;;;;;;;17.55;10.55;;;10.40;77.30;;;;;;7397936;19;19919;-71
2023/12/29 00:08:00;;;;;;;18.25;9.52;;;10.40;77.60;;;;;;7406732;19;19915;-73
2023/12/29 00:10:26;;;;;;;19.17;10.35;;;10.40;77.30;;;;;;7403708;19;19915;-73
2023/12/29 00:12:51;;;;;;;19.40;9.50;;;10.40;77.40;;;;;;7405352;19;19927;-71
2023/12/29 00:15:18;;;;;;;19.63;9.52;;;10.50;76.60;;;;;;7400490;19;19950;-72
2023/12/29 00:17:45;;;;;;;19.85;10.05;;;10.50;75.90;;;;;;7403275;19;19925;-72
2023/12/29 00:20:11;;;;;;;21.15;9.23;;;10.40;76.20;;;;;;7400452;19;19915;-72
2023/12/29 00:22:37;;;;;;;19.15;10.40;;;10.30;76.10;;;;;;7404739;19;20272;-76
2023/12/29 00:25:03;;;;;;;18.27;9.93;;;10.40;76.80;;;;;;7405671;19;20357;-71
2023/12/29 00:27:29;;;;;;;17.30;9.80;;;10.30;76.90;;;;;;7404275;19;19922;-74
2023/12/29 00:29:58;;;;;;;16.67;9.48;;;10.40;76.90;;;;;;7404403;19;19929;-75
2023/12/29 00:32:24;;;;;;;18.48;9.55;;;10.40;76.70;;;;;;7404437;19;19974;-71
2023/12/29 00:34:49;;;;;;;18.15;10.23;;;10.40;76.30;;;;;;7404121;19;20092;-71
2023/12/29 00:37:15;;;;;;;19.60;9.65;;;10.30;75.30;;;;;;7403528;19;20048;-72
2023/12/29 00:39:41;;;;;;;16.92;9.75;;;10.30;74.90;;;;;;7397893;19;19923;-72
2023/12/29 00:42:07;;;;;;;18.02;9.65;;;10.30;74.20;;;;;;7403771;19;19922;-71
2023/12/29 00:44:34;;;;;;;18.42;8.85;;;10.20;73.80;;;;;;7400731;19;19919;-71
2023/12/29 00:47:00;;;;;;;15.93;8.73;;;10.20;74.00;;;;;;7405758;19;20263;-70
2023/12/29 00:49:26;;;;;;;16.75;8.18;;;10.30;72.40;;;;;;7402411;19;19929;-71
2023/12/29 00:51:53;;;;;;;14.93;8.13;;;10.30;70.40;;;;;;7396242;19;19970;-72
2023/12/29 00:54:19;;;;;;;16.52;8.38;;;10.30;70.90;;;;;;7401769;19;19914;-71
2023/12/29 00:56:51;;;;;;;18.65;8.45;;;10.30;70.50;;;;;;7402158;19;19944;-72
2023/12/29 00:59:19;;;;;;;16.20;9.52;;;10.20;70.50;;;;;;7401881;19;19921;-72
2023/12/29 01:01:45;;;;;;;16.45;8.80;;;10.20;71.20;;;;;;7400430;19;19918;-72
2023/12/29 01:04:11;;;;;;;15.75;8.95;;;10.20;72.10;;;;;;7401570;19;19927;-72
2023/12/29 01:06:37;;;;;;;18.77;9.48;;;10.30;67.00;;;;;;7400713;19;20485;-72
2023/12/29 01:09:03;;;;;;;16.40;9.68;;;10.40;69.90;;;;;;7401600;19;19923;-71
2023/12/29 01:11:29;;;;;;;17.50;8.63;;;10.40;67.00;;;;;;7399988;19;19926;-72
2023/12/29 01:13:55;;;;;;;21.55;10.63;;;10.40;65.10;;;;;;7406919;19;19930;-71
2023/12/29 01:16:21;;;;;;;17.58;9.13;;;10.40;66.30;;;;;;7399117;19;19918;-72
2023/12/29 01:18:47;;;;;;;16.50;9.38;;;10.30;66.90;;;;;;7403253;19;19910;-71
2023/12/29 01:21:12;;;;;;;19.83;8.88;;;10.40;65.60;;;;;;7400326;19;19958;-72
2023/12/29 01:23:38;;;;;;;16.83;8.77;;;10.30;65.00;;;;;;7401194;19;19910;-71
2023/12/29 01:26:04;;;;;;;15.88;10.05;;;10.30;65.30;;;;;;7401011;19;20615;-71
2023/12/29 01:28:29;;;;;;;15.75;8.45;;;10.30;64.80;;;;;;7383528;19;19911;-71
2023/12/29 01:30:55;;;;;;;16.20;8.68;;;10.30;64.80;;;;;;7402030;19;19923;-71
2023/12/29 01:33:21;;;;;;;21.27;9.52;;;10.20;64.70;;;;;;7400641;19;19921;-72
2023/12/29 01:35:47;;;;;;;18.02;9.50;;;10.30;64.50;;;;;;7400781;19;19936;-71
2023/12/29 01:38:13;;;;;;;15.98;8.48;;;10.20;64.60;;;;;;7403573;19;19936;-73
2023/12/29 01:40:45;;;;;;;17.80;9.48;;;10.20;65.40;;;;;;7401997;19;19918;-72
2023/12/29 01:43:11;;;;;;;16.02;9.27;;;10.30;65.60;;;;;;7402015;19;19922;-70
2023/12/29 01:45:37;;;;;;;15.85;8.88;;;10.20;65.30;;;;;;7402664;19;19912;-72
2023/12/29 01:48:03;;;;;;;18.02;9.10;;;10.20;65.80;;;;;;7399879;19;19930;-73
2023/12/29 01:50:29;;;;;;;16.05;9.13;;;10.20;65.60;;;;;;7400395;19;19919;-71
2023/12/29 01:52:56;;;;;;;20.67;9.80;;;10.20;64.80;;;;;;7402028;19;20216;-71
2023/12/29 01:55:23;;;;;;;17.25;8.45;;;10.20;64.40;;;;;;7398193;19;19985;-70
2023/12/29 01:57:51;;;;;;;18.65;9.23;;;10.10;64.30;;;;;;7398024;19;19911;-71
2023/12/29 02:00:18;;;;;;;18.33;8.32;;;10.10;64.60;;;;;;7396815;19;20034;-72
2023/12/29 02:02:45;;;;;;;15.60;8.10;;;10.10;63.90;;;;;;7400539;19;19914;-72
2023/12/29 02:05:17;;;;;;;15.23;7.78;;;10.00;63.30;;;;;;7397352;19;19978;-71
2023/12/29 02:07:43;;;;;;;17.38;8.00;;;10.10;61.00;;;;;;7400759;19;19918;-70
2023/12/29 02:10:15;;;;;;;17.83;8.27;;;10.10;60.60;;;;;;7395983;19;19918;-71
2023/12/29 02:12:49;;;;;;;18.67;8.13;;;10.00;60.60;;;;;;7400975;19;20295;-71
2023/12/29 02:15:15;;;;;;;19.23;7.80;;;10.00;61.30;;;;;;7394676;19;20034;-71
2023/12/29 02:17:51;;;;;;;15.32;7.70;;;9.90;61.00;;;;;;7403472;19;20013;-71
2023/12/29 02:20:17;;;;;;;15.48;8.32;;;9.90;61.40;;;;;;7399147;19;19931;-72
2023/12/29 02:22:42;;;;;;;16.08;7.53;;;9.90;60.90;;;;;;7394907;19;20278;-71
2023/12/29 02:25:10;;;;;;;13.75;7.45;;;9.90;60.40;;;;;;7399049;19;20006;-70
2023/12/29 02:27:59;;;;;;;15.18;6.85;;;9.90;58.50;;;;;;7400551;19;19923;-71
2023/12/29 02:30:46;;;;;;;15.00;6.70;;;9.90;54.50;;;;;;7399429;19;19953;-72
2023/12/29 02:33:19;;;;;;;10.45;6.07;;;10.00;48.40;;;;;;7394110;19;19943;-72
2023/12/29 02:35:46;;;;;;;13.43;5.28;;;10.10;45.20;;;;;;7400096;19;19946;-71
2023/12/29 02:38:12;;;;;;;11.60;6.47;;;10.10;45.30;;;;;;7396346;19;20301;-72
2023/12/29 02:40:38;;;;;;;13.95;6.03;;;10.10;44.80;;;;;;7395982;19;19911;-71
2023/12/29 02:43:04;;;;;;;11.27;6.30;;;10.20;43.10;;;;;;7393032;19;19933;-71
2023/12/29 02:45:30;;;;;;;10.95;6.00;;;10.20;42.80;;;;;;7398751;19;19922;-71
2023/12/29 02:47:56;;;;;;;12.68;6.68;;;10.10;43.70;;;;;;7394819;19;19915;-71
2023/12/29 02:50:22;;;;;;;15.40;6.88;;;10.10;45.70;;;;;;7400045;19;19922;-72
2023/12/29 02:52:48;;;;;;;12.23;6.45;;;10.10;45.90;;;;;;7399073;19;19951;-71
2023/12/29 02:55:14;;;;;;;13.35;6.30;;;10.20;45.50;;;;;;7392834;19;19926;-71
2023/12/29 02:57:39;;;;;;;13.02;6.82;;;10.10;45.10;;;;;;7374662;19;20285;-71
2023/12/29 03:00:06;;;;;;;14.38;6.78;;;10.10;45.20;;;;;;7396136;19;19919;-72
2023/12/29 03:02:32;;;;;;;13.15;7.55;;;10.10;45.70;;;;;;7397479;19;19953;-71
2023/12/29 03:04:58;;;;;;;15.05;6.80;;;10.10;45.90;;;;;;7397556;19;20228;-71
2023/12/29 03:07:24;;;;;;;14.40;7.38;;;10.10;46.10;;;;;;7397479;19;19945;-71
2023/12/29 03:09:50;;;;;;;15.48;6.78;;;10.10;46.60;;;;;;7399825;19;19918;-71
2023/12/29 03:12:16;;;;;;;14.50;6.57;;;10.00;46.30;;;;;;7399597;19;19940;-72
2023/12/29 03:14:42;;;;;;;12.68;5.88;;;10.00;45.50;;;;;;7400707;19;20296;-71
2023/12/29 03:17:07;;;;;;;12.40;6.47;;;10.10;45.30;;;;;;7395017;19;20335;-72
2023/12/29 03:19:33;;;;;;;12.35;6.18;;;10.10;43.60;;;;;;7397536;19;19910;-72
2023/12/29 03:21:59;;;;;;;13.27;6.88;;;10.20;42.90;;;;;;7395789;19;19907;-71
2023/12/29 03:24:25;;;;;;;12.23;6.43;;;10.20;40.70;;;;;;7394210;19;19919;-72
2023/12/29 03:26:50;;;;;;;9.73;5.05;;;10.30;39.90;;;;;;7397741;19;20346;-71
2023/12/29 03:29:16;;;;;;;12.15;7.05;;;10.20;37.00;;;;;;7397300;19;20519;-71
2023/12/29 03:31:42;;;;;;;14.20;5.97;;;10.30;36.00;;;;;;7399758;19;19910;-71
2023/12/29 03:34:08;;;;;;;12.02;5.43;;;10.30;36.50;;;;;;7395584;19;19918;-75
2023/12/29 03:36:34;;;;;;;9.80;5.28;;;10.40;35.30;;;;;;7400073;19;19911;-71
2023/12/29 03:38:59;;;;;;;10.25;5.30;;;10.40;35.30;;;;;;7397256;19;19936;-71
2023/12/29 03:41:25;;;;;;;10.40;5.38;;;10.30;34.20;;;;;;7403089;19;19927;-72
2023/12/29 03:43:51;;;;;;;11.20;5.30;;;10.30;35.40;;;;;;7403922;19;20350;-71
2023/12/29 03:46:20;;;;;;;11.27;5.38;;;10.30;35.80;;;;;;7404394;19;19919;-71
2023/12/29 03:48:47;;;;;;;11.48;5.63;;;10.30;35.30;;;;;;7406466;19;20226;-72
2023/12/29 03:51:13;;;;;;;11.30;5.28;;;10.30;34.80;;;;;;7383027;19;19914;-71
2023/12/29 03:53:39;;;;;;;11.88;5.30;;;10.40;33.80;;;;;;7404544;19;19918;-71
2023/12/29 03:56:09;;;;;;;11.55;5.13;;;10.40;32.90;;;;;;7404189;19;20281;-71
2023/12/29 03:58:35;;;;;;;10.07;4.90;;;10.50;32.10;;;;;;7406797;19;19918;-72
2023/12/29 04:01:01;;;;;;;8.20;4.25;;;10.30;32.20;;;;;;7406517;19;19930;-71
2023/12/29 04:03:28;;;;;;;9.68;4.38;;;10.30;31.00;;;;;;7381548;19;19935;-71
2023/12/29 04:05:54;;;;;;;9.95;4.22;;;10.20;29.60;;;;;;7405117;19;19925;-71
2023/12/29 04:08:19;;;;;;;9.15;4.90;;;10.20;29.90;;;;;;7405657;19;20404;-71
2023/12/29 04:10:45;;;;;;;9.02;4.18;;;10.10;31.00;;;;;;7404390;19;20021;-71
2023/12/29 04:13:11;;;;;;;7.88;3.80;;;10.20;28.20;;;;;;7381563;19;20347;-72
2023/12/29 04:15:37;;;;;;;9.18;4.07;;;10.10;29.40;;;;;;7403819;19;19918;-72
2023/12/29 04:18:04;;;;;;;9.05;4.53;;;10.00;30.20;;;;;;7402096;19;19951;-72
2023/12/29 04:20:30;;;;;;;10.02;4.68;;;10.00;32.40;;;;;;7406273;19;19998;-71
2023/12/29 04:22:56;;;;;;;11.88;4.40;;;10.00;33.30;;;;;;7402537;19;19922;-71
2023/12/29 04:25:22;;;;;;;9.25;4.07;;;10.00;32.20;;;;;;7403144;19;22590;-71
2023/12/29 04:27:47;;;;;;;8.52;4.20;;;10.10;30.00;;;;;;7404576;19;19915;-71
2023/12/29 04:30:13;;;;;;;8.57;3.70;;;10.10;28.70;;;;;;7401830;19;19956;-71
2023/12/29 04:32:39;;;;;;;7.53;3.60;;;10.20;27.30;;;;;;7403933;19;20268;-71
2023/12/29 04:35:05;;;;;;;4.93;2.20;;;10.20;26.10;;;;;;7406023;19;19959;-71
2023/12/29 04:37:31;;;;;;;4.93;1.60;;;10.40;22.40;;;;;;7403910;19;19918;-70
2023/12/29 04:39:57;;;;;;;6.57;2.50;;;10.80;19.10;;;;;;7404968;19;19918;-72
2023/12/29 04:42:22;;;;;;;5.95;2.42;;;11.20;16.80;;;;;;7403879;19;19931;-71
2023/12/29 04:44:48;;;;;;;4.75;2.03;;;11.20;15.60;;;;;;7404156;19;19918;-71
2023/12/29 04:47:14;;;;;;;3.65;1.35;;;11.30;14.10;;;;;;7401967;19;19925;-71
2023/12/29 04:49:40;;;;;;;3.72;1.30;;;11.40;12.80;;;;;;7400511;19;19922;-70
2023/12/29 04:52:05;;;;;;;5.15;1.60;;;11.40;12.60;;;;;;7400889;19;19915;-71
2023/12/29 04:54:31;;;;;;;4.25;1.50;;;11.40;12.50;;;;;;7402632;19;20524;-71
2023/12/29 04:56:57;;;;;;;4.72;1.60;;;11.30;12.30;;;;;;7404165;19;19911;-72
2023/12/29 04:59:22;;;;;;;4.07;1.65;;;11.20;11.60;;;;;;7401946;19;19994;-71
2023/12/29 05:01:48;;;;;;;4.85;1.75;;;11.00;12.80;;;;;;7403612;19;19930;-71
2023/12/29 05:04:14;;;;;;;7.60;2.95;;;10.90;15.10;;;;;;7398761;19;19924;-71
2023/12/29 05:06:42;;;;;;;8.75;3.47;;;10.70;18.60;;;;;;7402712;19;19922;-71
2023/12/29 05:09:08;;;;;;;6.57;3.33;;;10.60;18.90;;;;;;7403628;19;19956;-70
2023/12/29 05:11:33;;;;;;;8.43;3.97;;;10.50;19.90;;;;;;7404204;19;19914;-71
2023/12/29 05:13:59;;;;;;;6.35;3.58;;;10.30;21.20;;;;;;7401490;19;20013;-70
2023/12/29 05:16:25;;;;;;;5.45;2.33;;;10.20;21.80;;;;;;7405700;19;19929;-72
2023/12/29 05:18:51;;;;;;;7.30;3.50;;;10.30;18.60;;;;;;7403015;19;19915;-71
2023/12/29 05:21:18;;;;;;;7.65;3.63;;;10.20;19.60;;;;;;7400659;19;19922;-71
2023/12/29 05:23:45;;;;;;;8.30;2.95;;;10.20;20.50;;;;;;7402890;19;19919;-71
2023/12/29 05:26:11;;;;;;;7.82;3.58;;;10.20;21.00;;;;;;7402596;19;19946;-71
2023/12/29 05:28:36;;;;;;;7.50;3.60;;;10.30;21.10;;;;;;7400977;19;19922;-71
2023/12/29 05:31:04;;;;;;;7.35;3.95;;;10.30;21.50;;;;;;7402617;19;20345;-71
2023/12/29 05:33:33;;;;;;;7.15;3.55;;;10.20;21.90;;;;;;7400312;19;19939;-71
2023/12/29 05:36:05;;;;;;;8.52;4.35;;;10.10;22.80;;;;;;7404288;19;19941;-70
2023/12/29 05:38:31;;;;;;;9.32;3.65;;;10.10;23.70;;;;;;7403053;19;19923;-71
2023/12/29 05:40:57;;;;;;;7.18;3.47;;;10.00;24.40;;;;;;7403489;19;20050;-70
2023/12/29 05:43:23;;;;;;;7.35;4.20;;;9.90;24.60;;;;;;7401515;19;19937;-71
2023/12/29 05:45:49;;;;;;;10.40;3.92;;;9.90;24.60;;;;;;7403394;19;19990;-71
2023/12/29 05:48:14;;;;;;;10.07;4.13;;;9.90;24.90;;;;;;7402199;19;19954;-71
2023/12/29 05:50:40;;;;;;;9.23;4.20;;;9.90;25.30;;;;;;7404660;19;19926;-71
2023/12/29 05:53:06;;;;;;;10.52;5.03;;;9.90;25.60;;;;;;7400897;19;20259;-70
2023/12/29 05:55:32;;;;;;;9.25;4.32;;;9.90;26.30;;;;;;7404013;19;19926;-71
2023/12/29 05:57:58;;;;;;;9.43;4.45;;;9.90;26.60;;;;;;7401855;19;19931;-71
2023/12/29 06:00:23;;;;;;;10.07;4.43;;;9.90;27.00;;;;;;7402626;19;20334;-71
2023/12/29 06:02:49;;;;;;;10.40;4.70;;;9.80;27.40;;;;;;7400982;19;19922;-72
2023/12/29 06:05:15;;;;;;;9.38;3.95;;;9.80;27.60;;;;;;7398525;19;19922;-70
2023/12/29 06:07:41;;;;;;;9.32;5.07;;;9.70;27.10;;;;;;7399093;19;19922;-70
2023/12/29 06:10:09;;;;;;;11.02;5.53;;;9.70;26.80;;;;;;7401976;19;19943;-72
2023/12/29 06:12:35;;;;;;;11.88;5.25;;;9.70;26.50;;;;;;7399609;19;19942;-72
2023/12/29 06:15:00;;;;;;;8.38;4.03;;;9.60;26.20;;;;;;7403253;19;19919;-72
2023/12/29 06:17:26;;;;;;;8.40;4.80;;;9.60;25.80;;;;;;7399896;19;20531;-72
2023/12/29 06:19:52;;;;;;;8.95;4.35;;;9.70;25.30;;;;;;7405305;19;20022;-72
2023/12/29 06:22:18;;;;;;;10.50;4.97;;;9.60;25.70;;;;;;7399155;19;19919;-72
2023/12/29 06:24:44;;;;;;;9.35;4.18;;;9.60;26.00;;;;;;7402159;19;19927;-71
2023/12/29 06:27:11;;;;;;;8.07;4.13;;;9.60;25.10;;;;;;7398925;19;19915;-71
2023/12/29 06:29:37;;;;;;;8.73;4.18;;;9.60;24.70;;;;;;7400763;19;19937;-71
2023/12/29 06:32:04;;;;;;;8.00;4.40;;;9.60;24.70;;;;;;7397036;19;19914;-71
2023/12/29 06:34:30;;;;;;;9.85;4.70;;;9.50;24.50;;;;;;7399756;19;20291;-71
2023/12/29 06:36:55;;;;;;;8.55;4.32;;;9.50;24.60;;;;;;7398712;19;19919;-72
2023/12/29 06:39:22;;;;;;;10.95;4.78;;;9.50;25.40;;;;;;7397952;19;19926;-71
2023/12/29 06:41:48;;;;;;;8.00;4.10;;;9.50;26.10;;;;;;7397381;19;19925;-71
2023/12/29 06:44:14;;;;;;;10.50;5.07;;;9.50;26.50;;;;;;7377926;19;19915;-72
2023/12/29 06:46:40;;;;;;;10.70;5.28;;;9.40;26.70;;;;;;7396605;19;20350;-71
2023/12/29 06:49:09;;;;;;;8.95;4.47;;;9.40;27.10;;;;;;7401038;19;19951;-71
2023/12/29 06:51:40;;;;;;;17.77;9.45;;;9.50;27.00;;;;;;7400557;19;19947;-70
2023/12/29 06:54:07;;;;;;;8.98;4.40;;;9.60;26.70;;;;;;7400887;19;19949;-71
2023/12/29 06:56:33;;;;;;;10.60;4.85;;;9.60;26.70;;;;;;7399529;19;20394;-71
2023/12/29 06:58:58;;;;;;;9.20;3.97;;;9.60;26.50;;;;;;7399516;19;19923;-71
2023/12/29 07:01:24;;;;;;;7.25;3.97;;;9.60;26.10;;;;;;7399256;19;19940;-72
2023/12/29 07:03:50;;;;;;;8.93;4.65;;;9.60;25.80;;;;;;7400848;19;19919;-74
2023/12/29 07:06:16;;;;;;;9.05;4.13;;;9.60;25.40;;;;;;7401080;19;19919;-71
2023/12/29 07:08:42;;;;;;;8.95;4.57;;;9.60;25.00;;;;;;7398231;19;19923;-71
2023/12/29 07:11:11;;;;;;;8.48;4.07;;;9.60;25.90;;;;;;7399930;19;19926;-71
2023/12/29 07:13:37;;;;;;;8.20;3.63;;;9.60;25.70;;;;;;7398249;19;19918;-72
2023/12/29 07:16:04;;;;;;;8.90;3.65;;;9.70;24.60;;;;;;7399923;19;19943;-71
2023/12/29 07:18:30;;;;;;;7.70;3.78;;;9.80;24.30;;;;;;7398450;19;20280;-71
2023/12/29 07:20:56;;;;;;;9.57;3.67;;;9.70;24.40;;;;;;7400952;19;19942;-72
2023/12/29 07:23:21;;;;;;;8.40;4.13;;;9.70;24.40;;;;;;7398729;19;19919;-71
2023/12/29 07:25:48;;;;;;;7.97;3.58;;;9.70;24.20;;;;;;7400474;19;19974;-71
2023/12/29 07:28:14;;;;;;;7.72;3.80;;;9.60;23.80;;;;;;7396719;19;20280;-71
2023/12/29 07:30:40;;;;;;;8.73;3.97;;;9.60;23.40;;;;;;7398486;19;19939;-71
2023/12/29 07:33:06;;;;;;;11.43;4.43;;;9.60;23.40;;;;;;7395724;19;19923;-71
2023/12/29 07:35:31;;;;;;;8.48;3.92;;;9.60;23.10;;;;;;7396632;19;20009;-72
2023/12/29 07:37:57;;;;;;;12.15;5.00;;;9.60;22.90;;;;;;7397277;19;19947;-71
2023/12/29 07:40:23;;;;;;;7.15;3.10;;;9.60;22.50;;;;;;7398723;19;19945;-72
2023/12/29 07:42:50;;;;;;;7.97;3.30;;;9.60;21.60;;;;;;7401934;19;19937;-71
2023/12/29 07:45:16;;;;;;;7.47;3.30;;;9.70;20.50;;;;;;7398169;19;19942;-73
2023/12/29 07:47:43;;;;;;;7.57;3.13;;;9.70;19.70;;;;;;7398579;19;19918;-72
2023/12/29 07:50:08;;;;;;;6.00;2.90;;;9.80;19.10;;;;;;7399222;19;20358;-72
2023/12/29 07:52:34;;;;;;;8.80;2.85;;;9.80;18.50;;;;;;7397870;19;19922;-72
2023/12/29 07:55:00;;;;;;;6.50;2.55;;;9.90;17.00;;;;;;7398734;19;19914;-71
2023/12/29 07:57:26;;;;;;;8.18;3.08;;;10.00;16.10;;;;;;7398712;19;19915;-72
2023/12/29 07:59:52;;;;;;;7.05;2.75;;;10.10;15.50;;;;;;7400361;19;20318;-71
2023/12/29 08:02:18;;;;;;;7.05;2.80;;;10.10;15.10;;;;;;7399488;19;19919;-71
2023/12/29 08:04:46;;;;;;;7.88;3.00;;;10.10;15.20;;;;;;7399732;19;19910;-72
2023/12/29 08:07:12;;;;;;;6.40;3.13;;;10.10;15.40;;;;;;7399034;19;20346;-72
2023/12/29 08:09:38;;;;;;;7.90;3.78;;;10.10;16.10;;;;;;7399410;19;19957;-71
2023/12/29 08:12:04;;;;;;;9.02;3.95;;;10.10;17.20;;;;;;7399359;19;19922;-71
2023/12/29 08:14:30;;;;;;;8.88;5.25;;;10.10;18.30;;;;;;7400786;19;19918;-73
2023/12/29 08:16:59;;;;;;;16.65;5.45;;;10.10;20.80;;;;;;7400922;19;20021;-71
2023/12/29 08:19:24;;;;;;;16.27;6.60;;;10.10;22.60;;;;;;7399581;19;19930;-70
2023/12/29 08:21:51;;;;;;;10.05;5.65;;;10.10;23.30;;;;;;7399933;19;20284;-71
2023/12/29 08:24:17;;;;;;;12.45;6.28;;;10.20;25.90;;;;;;7399545;19;20264;-71
2023/12/29 08:26:46;;;;;;;13.65;6.80;;;10.20;28.20;;;;;;7400865;19;19930;-71
2023/12/29 08:29:13;;;;;;;15.23;7.65;;;10.20;29.60;;;;;;7400671;19;20322;-72
2023/12/29 08:31:39;;;;;;;15.18;7.43;;;10.30;30.90;;;;;;7404319;19;19929;-72
2023/12/29 08:34:05;;;;;;;17.50;8.60;;;10.30;32.50;;;;;;7403829;19;19953;-71
2023/12/29 08:36:31;;;;;;;16.13;7.85;;;10.30;33.80;;;;;;7404537;19;19918;-70
2023/12/29 08:38:56;;;;;;;14.20;7.30;;;10.40;34.50;;;;;;7401395;19;19914;-71
2023/12/29 08:41:22;;;;;;;12.70;6.78;;;10.40;34.20;;;;;;7403926;19;19941;-71
2023/12/29 08:43:49;;;;;;;12.60;7.28;;;10.50;34.10;;;;;;7402994;19;19919;-71
2023/12/29 08:46:15;;;;;;;13.63;7.78;;;10.50;33.80;;;;;;7406399;19;19921;-72
2023/12/29 08:48:45;;;;;;;17.17;8.25;;;10.60;34.10;;;;;;7383719;19;19918;-70
2023/12/29 08:51:11;;;;;;;13.90;7.75;;;10.70;34.50;;;;;;7403895;19;19918;-71
2023/12/29 08:53:36;;;;;;;14.18;8.20;;;10.70;34.50;;;;;;7401413;19;19982;-71
2023/12/29 08:56:02;;;;;;;18.85;8.20;;;10.80;33.90;;;;;;7399927;19;19951;-71
2023/12/29 08:58:29;;;;;;;17.52;7.22;;;10.80;33.00;;;;;;7402665;19;19927;-71
2023/12/29 09:00:55;;;;;;;16.38;7.93;;;10.80;32.20;;;;;;7399368;19;20286;-70
2023/12/29 09:03:21;;;;;;;21.05;8.93;;;10.80;31.50;;;;;;7398659;19;19914;-72
2023/12/29 09:05:47;;;;;;;18.40;7.85;;;10.80;30.70;;;;;;7403639;19;19970;-72
2023/12/29 09:08:13;;;;;;;13.45;7.18;;;10.90;30.60;;;;;;7398019;19;20354;-72
2023/12/29 09:10:38;;;;;;;13.10;6.30;;;10.90;30.30;;;;;;7410441;19;19921;-71
2023/12/29 09:13:05;;;;;;;13.88;7.30;;;11.00;29.90;;;;;;7402561;19;19913;-71
2023/12/29 09:15:30;;;;;;;15.10;6.82;;;11.10;29.50;;;;;;7401075;19;20278;-73
2023/12/29 09:17:57;;;;;;;11.10;6.53;;;11.20;29.10;;;;;;7401991;19;20014;-72
2023/12/29 09:20:23;;;;;;;13.20;7.10;;;11.30;28.60;;;;;;7399157;19;20002;-72
2023/12/29 09:22:49;;;;;;;15.23;6.90;;;11.30;28.10;;;;;;7402811;19;20289;-71
2023/12/29 09:25:15;;;;;;;13.68;7.00;;;11.40;28.00;;;;;;7401401;19;19918;-71
2023/12/29 09:27:41;;;;;;;12.50;6.60;;;11.50;27.60;;;;;;7396238;19;19940;-72
2023/12/29 09:30:07;;;;;;;12.23;6.85;;;11.60;27.10;;;;;;7378676;19;19914;-73
2023/12/29 09:32:33;;;;;;;11.70;6.35;;;11.60;26.30;;;;;;7404605;19;19998;-72
2023/12/29 09:34:58;;;;;;;12.52;6.97;;;11.60;25.60;;;;;;7401085;19;19947;-72
2023/12/29 09:37:24;;;;;;;11.98;6.32;;;11.70;25.50;;;;;;7398317;19;19978;-71
2023/12/29 09:39:50;;;;;;;11.25;7.00;;;11.80;25.40;;;;;;7403177;19;19922;-72
2023/12/29 09:42:25;;;;;;;13.10;6.97;;;11.90;25.00;;;;;;7402695;19;19926;-72
2023/12/29 09:44:52;;;;;;;21.42;8.27;;;12.00;24.70;;;;;;7401860;19;19926;-72
2023/12/29 09:47:25;;;;;;;19.67;9.05;;;12.10;24.10;;;;;;7399524;19;19936;-72
2023/12/29 09:49:53;;;;;;;21.92;7.90;;;12.30;23.60;;;;;;7403748;19;19922;-71
2023/12/29 09:52:21;;;;;;;17.50;7.78;;;12.50;23.00;;;;;;7398531;19;19918;-70
2023/12/29 09:54:48;;;;;;;14.77;7.32;;;13.10;21.90;;;;;;7404496;19;19930;-72
2023/12/29 09:57:15;;;;;;;16.27;7.80;;;13.10;20.20;;;;;;7401518;19;19919;-71
2023/12/29 09:59:41;;;;;;;18.42;7.90;;;13.10;20.50;;;;;;7401571;19;19929;-71
2023/12/29 10:02:18;;;;;;;18.15;8.40;;;13.00;20.50;;;;;;7397375;19;19923;-70
2023/12/29 10:04:44;;;;;;;23.70;8.75;;;13.10;20.40;;;;;;7404015;19;19922;-71
2023/12/29 10:07:20;;;;;;;18.73;8.63;;;13.10;20.90;;;;;;7397968;19;19957;-71
2023/12/29 10:09:56;;;;;;;19.52;8.38;;;13.10;22.30;;;;;;7402541;19;20499;-71
2023/12/29 10:12:24;;;;;;;20.95;8.38;;;13.20;23.60;;;;;;7400406;19;19919;-72
2023/12/29 10:15:09;;;;;;;17.13;7.88;;;13.40;24.60;;;;;;7378056;19;19922;-71
2023/12/29 10:17:50;;;;;;;;;;;13.40;25.60;;;;;;7402244;19;19942;-71
2023/12/29 10:20:31;;;;;;;24.30;10.80;;;13.70;25.70;;;;;;7399971;19;20556;-71
2023/12/29 10:23:12;;;;;;;19.80;9.85;;;14.90;27.20;;;;;;7399834;19;19935;-72
2023/12/29 10:25:39;;;;;;;16.35;10.30;;;15.00;28.10;;;;;;7400246;19;19918;-72
2023/12/29 10:28:06;;;;;;;16.73;10.40;;;15.30;29.20;;;;;;7400646;19;19922;-72
2023/12/29 10:30:32;;;;;;;16.23;10.15;;;15.60;28.90;;;;;;7400646;19;19918;-72
2023/12/29 10:33:00;;;;;;;16.17;10.15;;;16.10;27.40;;;;;;7401055;19;19915;-72
2023/12/29 10:35:26;;;;;;;18.40;11.68;;;17.00;24.80;;;;;;7397593;19;19924;-73
2023/12/29 10:37:52;;;;;;;15.70;11.45;;;17.50;24.30;;;;;;7399123;19;19915;-72
2023/12/29 10:40:18;;;;;;;15.52;11.25;;;17.10;25.70;;;;;;7399019;19;19918;-72
2023/12/29 10:42:55;;;;;;;18.13;11.07;;;16.80;26.50;;;;;;7397342;19;19926;-72
2023/12/29 10:45:24;;;;;;;18.63;12.05;;;16.90;26.20;;;;;;7399157;19;19922;-72
2023/12/29 10:47:51;;;;;;;14.50;9.73;;;16.60;25.90;;;;;;7399480;19;20342;-72
2023/12/29 10:50:16;;;;;;;16.88;9.82;;;16.30;25.40;;;;;;7395759;19;19919;-73
2023/12/29 10:52:42;;;;;;;20.77;10.90;;;16.20;25.60;;;;;;7399381;19;19931;-72
2023/12/29 10:55:10;;;;;;;16.23;11.00;;;16.30;26.50;;;;;;7396019;19;20357;-72
2023/12/29 10:57:38;;;;;;;16.42;11.82;;;15.90;27.80;;;;;;7397175;19;20208;-72
2023/12/29 11:00:06;;;;;;;15.63;10.00;;;15.60;29.20;;;;;;7396709;19;19922;-72
2023/12/29 11:02:33;;;;;;;18.00;10.60;;;15.50;29.50;;;;;;7399304;19;19911;-71
2023/12/29 11:05:03;;;;;;;16.50;10.25;;;15.40;29.20;;;;;;7400065;19;19937;-71
2023/12/29 11:07:34;;;;;;;18.48;11.10;;;15.20;29.60;;;;;;7394678;19;19923;-71
2023/12/29 11:10:04;;;;;;;16.17;9.80;;;15.10;30.00;;;;;;7392397;19;19923;-71
2023/12/29 11:12:37;;;;;;;15.27;9.25;;;15.10;29.60;;;;;;7395289;19;19949;-71
2023/12/29 11:15:05;;;;;;;15.23;9.88;;;15.00;28.10;;;;;;7392322;19;19982;-71
2023/12/29 11:17:33;;;;;;;14.93;9.63;;;14.90;28.20;;;;;;7394794;19;19926;-71
2023/12/29 11:20:01;;;;;;;15.68;10.13;;;15.40;27.90;;;;;;7397132;19;19930;-72
2023/12/29 11:22:30;;;;;;;16.23;9.43;;;16.10;26.10;;;;;;7398218;19;19998;-71
2023/12/29 11:25:00;;;;;;;17.90;10.60;;;16.70;23.90;;;;;;7397746;19;19981;-72
2023/12/29 11:27:30;;;;;;;17.13;10.93;;;16.50;23.50;;;;;;7398755;19;20626;-72
2023/12/29 11:30:00;;;;;;;16.27;10.38;;;16.40;23.00;;;;;;7396383;19;20345;-71
2023/12/29 11:32:41;;;;;;;19.15;11.07;;;16.70;22.00;;;;;;7373574;19;19924;-71
2023/12/29 11:35:32;;;;;;;19.67;11.00;;;16.30;22.60;;;;;;7392795;19;19929;-71
2023/12/29 11:38:22;;;;;;;16.90;11.95;;;16.10;22.90;;;;;;7396827;19;20278;-71
2023/12/29 11:41:11;;;;;;;16.77;10.57;;;16.10;22.50;;;;;;7396409;19;20334;-72
2023/12/29 11:43:37;;;;;;;18.40;9.35;;;15.70;22.50;;;;;;7372685;19;19926;-72
2023/12/29 11:46:03;;;;;;;14.85;8.93;;;15.30;21.60;;;;;;7397607;19;19923;-71
2023/12/29 11:48:57;;;;;;;17.98;9.43;;;15.40;21.00;;;;;;7395716;19;19914;-71
2023/12/29 11:51:38;;;;;;;16.52;9.55;;;15.70;20.50;;;;;;7395150;19;20534;-72
2023/12/29 11:54:06;;;;;;;18.23;10.18;;;15.90;20.60;;;;;;7391300;19;19932;-71
2023/12/29 11:56:40;;;;;;;15.82;10.00;;;15.80;21.00;;;;;;7396588;19;19914;-72
2023/12/29 11:59:21;;;;;;;17.73;10.65;;;15.90;21.30;;;;;;7393105;19;19935;-73
2023/12/29 12:01:49;;;;;;;20.00;11.20;;;16.20;21.70;;;;;;7398140;19;20264;-72
2023/12/29 12:04:45;;;;;;;15.80;11.15;;;17.30;19.70;;;;;;7398204;19;20398;-72
2023/12/29 12:07:17;;;;;;;18.00;10.68;;;18.70;15.60;;;;;;7401103;19;19929;-72
2023/12/29 12:09:43;;;;;;;15.32;11.40;;;19.90;12.80;;;;;;7402013;19;20666;-73
2023/12/29 12:12:10;;;;;;;16.70;11.85;;;20.20;10.50;;;;;;7402176;19;19944;-72
2023/12/29 12:14:45;;;;;;;17.40;12.27;;;20.90;10.30;;;;;;7404200;19;19930;-73
2023/12/29 12:17:11;;;;;;;19.80;12.85;;;22.00;7.70;;;;;;7402088;19;19914;-72
2023/12/29 12:19:37;;;;;;;17.92;12.55;;;20.60;9.60;;;;;;7401462;19;20343;-72
2023/12/29 12:22:06;;;;;;;17.33;11.50;;;20.00;10.10;;;;;;7400774;19;19918;-72
2023/12/29 12:24:35;;;;;;;17.20;12.55;;;20.00;10.40;;;;;;7403401;19;19927;-72
2023/12/29 12:27:02;;;;;;;22.65;13.48;;;19.70;9.30;;;;;;7404557;19;20315;-74
2023/12/29 12:29:28;;;;;;;19.77;12.63;;;19.90;10.30;;;;;;7399872;19;19919;-71
2023/12/29 12:31:55;;;;;;;;;;;20.20;8.90;;;;;;7405697;19;19917;-72
2023/12/29 12:34:21;;;;;;;18.02;11.60;;;20.00;7.90;;;;;;7398161;19;19914;-71
2023/12/29 12:36:57;;;;;;;18.88;11.70;;;19.20;9.20;;;;;;7398582;19;20018;-71
2023/12/29 12:39:23;;;;;;;20.08;11.05;;;18.70;10.60;;;;;;7400704;19;19931;-71
2023/12/29 12:41:49;;;;;;;19.15;11.35;;;18.50;10.60;;;;;;7402144;19;19918;-73